Flight Track Log - Related Links

Times and Time Zones

All times are in EDT time to prevent confusion due to time zone crossing. See the DAL1981 flight status page for this flight to view local times or setup timezone preferences in your user account.

Time Position Orientation Groundspeed Altitude Reporting Facility
EDT Latitude Longitude Course Direction KTS MPH feet Rate Location/Type
Tue 06:09:43 AM 42.7319 -73.8081 180° South 132 152 1,400  Level Boston Center
Tue 06:10:55 AM 42.6669 -73.8350 197° South 260 299 3,600 2,331 Climbing Boston Center
Tue 06:12:00 AM 42.5003 -74.1498 200° South  Level Estimated
Tue 06:12:02 AM 42.6931 -73.9231 292° West 261 300 6,800  Level Boston Center
Tue 06:13:00 AM 42.4171 -74.2651 198° South  Level Estimated
Tue 06:13:02 AM 42.7525 -73.9953 318° Northwest 267 307 9,700  Level Boston Center
Tue 06:14:00 AM 42.3338 -74.3801 180° South  Level Estimated
Tue 06:14:02 AM 42.7736 -74.1144 284° West 295 339 11,100  Level Boston Center
Tue 06:15:02 AM 42.7694 -74.2475 268° West 354 407 13,600 2,650 Climbing Boston Center
Tue 06:16:02 AM 42.7233 -74.3903 246° West 386 444 16,400 2,250 Climbing Boston Center
Tue 06:17:02 AM 42.6131 -74.3811 176° South 340 391 18,100 1,800 Climbing Boston Center
Tue 06:18:02 AM 42.5289 -74.3108 148° Southeast 346 398 20,000 1,835 Climbing Boston Center
Tue 06:19:03 AM 42.4303 -74.2178 145° Southeast 389 448 21,800 1,850 Climbing Boston Center
Tue 06:20:02 AM 42.3253 -74.1222 146° Southeast 417 480 23,700 1,815 Climbing Boston Center
Tue 06:21:02 AM 42.2161 -74.0408 151° Southeast 444 511 25,400 1,686 Climbing Boston Center
Tue 06:22:03 AM 42.0808 -74.0289 176° South 444 511 27,100 1,768 Climbing Boston Center
Tue 06:24:29 AM 41.7653 -74.0639 185° South 464 534 31,500 1,689 Climbing New York Center
Tue 06:25:29 AM 41.6422 -74.0717 183° South 459 528 32,900 1,091 Climbing New York Center
Tue 06:26:30 AM 41.5361 -74.0719 180° South 453 521 33,700 744 Climbing New York Center
Tue 06:27:30 AM 41.4167 -74.1019 191° South 441 507 34,400 645 Climbing New York Center
Tue 06:28:31 AM 41.3111 -74.2208 220° Southwest 431 496 35,000 555 Climbing New York Center
Tue 06:29:29 AM 41.2222 -74.3350 224° Southwest 445 512 35,500 508 Climbing New York Center
Tue 06:30:29 AM 41.1314 -74.4458 223° Southwest 450 518 36,000 248 Climbing New York Center
Tue 06:31:30 AM 41.0444 -74.5594 225° Southwest 450 518 36,000  Level New York Center
Tue 06:32:31 AM 40.9536 -74.6669 222° Southwest 445 512 36,000 -50 Level New York Center
Tue 06:33:31 AM 40.8667 -74.7772 224° Southwest 440 506 35,900 -51 Descending New York Center
Tue 06:34:29 AM 40.7775 -74.8844 222° Southwest 440 506 35,900 51 Level New York Center
Tue 06:35:29 AM 40.6861 -74.9911 222° Southwest 440 506 36,000 50 Climbing New York Center
Tue 06:36:29 AM 40.5989 -75.1006 224° Southwest 435 501 36,000  Level New York Center
Tue 06:37:30 AM 40.5114 -75.2097 224° Southwest 435 501 36,000  Level New York Center
Tue 06:38:30 AM 40.4306 -75.3108 224° Southwest 440 506 36,000  Level New York Center
Tue 06:39:28 AM 40.3428 -75.4194 223° Southwest 440 506 36,000 -50 Level New York Center
Tue 06:40:29 AM 40.2553 -75.5250 223° Southwest 440 506 35,900  Descending New York Center
Tue 06:41:30 AM 40.1814 -75.6503 232° Southwest 440 506 36,000 50 Climbing New York Center
Tue 06:42:30 AM 40.1075 -75.7700 231° Southwest 435 501 36,000  Level New York Center
Tue 06:43:29 AM 40.0008 -75.8275 202° Southwest 417 480 36,000  Level New York Center
Tue 06:44:28 AM 39.8831 -75.8514 189° South 406 467 36,000 -50 Level New York Center
Tue 06:45:29 AM 39.7839 -75.9281 211° Southwest 417 480 35,900  Descending New York Center
Tue 06:46:29 AM 39.7217 -76.0636 239° Southwest 412 474 36,000 50 Climbing New York Center
Tue 06:47:30 AM 39.7083 -76.2192 264° West 408 470 36,000  Level New York Center
Tue 06:48:31 AM 39.7575 -76.3689 293° West 408 470 36,000  Level New York Center
Tue 06:49:31 AM 39.8261 -76.5069 303° West 420 483 36,000  Level New York Center
Tue 06:50:29 AM 39.8644 -76.6589 288° West 432 497 36,000  Level New York Center
Tue 06:51:29 AM 39.8297 -76.8075 253° West 418 481 36,000  Level New York Center
Tue 06:51:58 AM 39.7967 -76.8581 230° Southwest 404 465 36,000  Level Washington Center
Tue 06:52:55 AM 39.7100 -76.9644 223° Southwest 404 465 36,000  Level Washington Center
Tue 06:53:56 AM 39.6214 -77.0678 222° Southwest 416 479 36,000  Level Washington Center
Tue 06:54:58 AM 39.5367 -77.1739 224° Southwest 421 484 36,000  Level Washington Center
Tue 06:55:56 AM 39.4497 -77.2767 222° Southwest 426 490 36,000  Level Washington Center
Tue 06:56:57 AM 39.3628 -77.3767 222° Southwest 426 490 36,000  Level Washington Center
Tue 06:57:58 AM 39.2781 -77.4792 223° Southwest 420 483 36,000  Level Washington Center
Tue 06:58:57 AM 39.1822 -77.5972 224° Southwest 426 490 36,000  Level Washington Center
Tue 06:59:57 AM 39.0972 -77.7019 224° Southwest 426 490 36,000  Level Washington Center
Tue 07:00:56 AM 39.0161 -77.7956 222° Southwest 431 496 36,000  Level Washington Center
Tue 07:01:57 AM 38.9222 -77.9183 226° Southwest 425 489 36,000  Level Washington Center
Tue 07:02:57 AM 38.8347 -78.0247 223° Southwest 435 501 36,000  Level Washington Center
Tue 07:03:55 AM 38.7469 -78.1283 223° Southwest 435 501 36,000  Level Washington Center
Tue 07:04:56 AM 38.6614 -78.2292 223° Southwest 430 495 36,000  Level Washington Center
Tue 07:05:56 AM 38.5736 -78.3322 223° Southwest 430 495 36,000  Level Washington Center
Tue 07:06:57 AM 38.4858 -78.4350 223° Southwest 430 495 36,000  Level Washington Center
Tue 07:07:57 AM 38.3978 -78.5378 222° Southwest 430 495 36,000  Level Washington Center
Tue 07:08:58 AM 38.3097 -78.6375 222° Southwest 430 495 36,000  Level Washington Center
Tue 07:09:56 AM 38.2258 -78.7397 224° Southwest 430 495 36,000  Level Washington Center
Tue 07:10:56 AM 38.1375 -78.8417 222° Southwest 430 495 36,000  Level Washington Center
Tue 07:11:57 AM 38.0494 -78.9433 222° Southwest 430 495 36,000  Level Washington Center
Tue 07:12:57 AM 37.9653 -79.0344 220° Southwest 436 502 36,000  Level Washington Center
Tue 07:13:58 AM 37.8789 -79.1383 224° Southwest 436 502 36,000  Level Washington Center
Tue 07:14:56 AM 37.7961 -79.2528 228° Southwest 436 502 36,000  Level Washington Center
Tue 07:15:56 AM 37.7047 -79.3769 227° Southwest 441 507 36,000  Level Washington Center
Tue 07:16:57 AM 37.6217 -79.4933 228° Southwest 441 507 36,000  Level Washington Center
Tue 07:17:56 AM 37.5386 -79.6069 227° Southwest 447 514 36,000  Level Washington Center
Tue 07:20:21 AM 37.3369 -79.8783 227° Southwest 446 513 36,000  Level Atlanta Center
Tue 07:21:21 AM 37.2531 -79.9922 227° Southwest 446 513 36,000  Level Atlanta Center
Tue 07:22:21 AM 37.1733 -80.1031 228° Southwest 441 507 36,000  Level Atlanta Center
Tue 07:23:21 AM 37.0994 -80.2031 227° Southwest 436 502 36,000  Level Atlanta Center
Tue 07:24:21 AM 37.0172 -80.3136 227° Southwest 436 502 36,000  Level Atlanta Center
Tue 07:25:21 AM 36.9353 -80.4267 228° Southwest 436 502 36,000  Level Atlanta Center
Tue 07:26:21 AM 36.8528 -80.5367 227° Southwest 436 502 36,000  Level Atlanta Center
Tue 07:27:21 AM 36.7603 -80.6575 226° Southwest 436 502 36,000  Level Atlanta Center
Tue 07:28:21 AM 36.6778 -80.7669 227° Southwest 431 496 36,000  Level Atlanta Center
Tue 07:29:21 AM 36.5953 -80.8789 227° Southwest 431 496 36,000  Level Atlanta Center
Tue 07:30:21 AM 36.5186 -80.9803 227° Southwest 436 502 36,000  Level Atlanta Center
Tue 07:31:21 AM 36.4317 -81.0894 225° Southwest 436 502 36,000  Level Atlanta Center
Tue 07:32:21 AM 36.3467 -81.1981 226° Southwest 436 502 36,000  Level Atlanta Center
Tue 07:33:21 AM 36.2656 -81.3067 227° Southwest 437 503 36,000 -200 Level Atlanta Center
Tue 07:34:21 AM 36.1825 -81.4200 228° Southwest 437 503 35,600 -500 Descending Atlanta Center
Tue 07:35:21 AM 36.0972 -81.5281 226° Southwest 432 497 35,000 -300 Descending Atlanta Center
Tue 07:36:21 AM 36.0139 -81.6386 227° Southwest 437 503 35,000  Level Atlanta Center
Tue 07:37:21 AM 35.9286 -81.7514 227° Southwest 437 503 35,000  Level Atlanta Center
Tue 07:38:21 AM 35.8428 -81.8614 226° Southwest 442 509 35,000  Level Atlanta Center
Tue 07:39:21 AM 35.7572 -81.9711 226° Southwest 442 509 35,000  Level Atlanta Center
Tue 07:40:21 AM 35.6692 -82.0806 225° Southwest 442 509 35,000  Level Atlanta Center
Tue 07:41:21 AM 35.5708 -82.1928 223° Southwest 435 501 35,000 -450 Level Atlanta Center
Tue 07:42:21 AM 35.4806 -82.2942 222° Southwest 443 510 34,100 -1,050 Descending Atlanta Center
Tue 07:43:21 AM 35.3922 -82.3981 224° Southwest 443 510 32,900 -1,800 Descending Atlanta Center
Tue 07:44:21 AM 35.3017 -82.4992 222° Southwest 437 503 30,500 -2,200 Descending Atlanta Center
Tue 07:45:21 AM 35.2111 -82.5975 222° Southwest 442 509 28,500 -1,900 Descending Atlanta Center
Tue 07:46:21 AM 35.1144 -82.7083 223° Southwest 449 517 26,700 -1,600 Descending Atlanta Center
Tue 07:47:21 AM 35.0214 -82.8111 222° Southwest 457 526 25,300 -1,300 Descending Atlanta Center
Tue 07:48:21 AM 34.9411 -82.9011 223° Southwest 457 526 24,100 -650 Descending Atlanta Center
Tue 07:49:21 AM 34.8461 -83.0111 224° Southwest 443 510 24,000 -50 Descending Atlanta Center
Tue 07:50:21 AM 34.7569 -83.1058 221° Southwest 432 497 24,000  Level Atlanta Center
Tue 07:51:21 AM 34.6700 -83.2028 223° Southwest 432 497 24,000 -750 Level Atlanta Center
Tue 07:52:21 AM 34.5808 -83.2994 222° Southwest 438 504 22,500 -2,100 Descending Atlanta Center
Tue 07:53:21 AM 34.4981 -83.3936 223° Southwest 418 481 19,800 -2,700 Descending Atlanta Center
Tue 07:54:21 AM 34.4150 -83.4822 221° Southwest 413 475 17,100 -2,450 Descending Atlanta Center
Tue 07:55:21 AM 34.3339 -83.5708 222° Southwest 399 459 14,900 -1,600 Descending Atlanta Center
Tue 07:56:21 AM 34.2694 -83.6442 223° Southwest 378 435 13,900 -1,150 Descending Atlanta Center
Tue 07:57:21 AM 34.1944 -83.7222 221° Southwest 371 427 12,600 -950 Descending Atlanta Center
Tue 07:58:21 AM 34.1258 -83.7978 222° Southwest 351 404 12,000 -350 Descending Atlanta Center
Tue 07:59:21 AM 34.0656 -83.8658 223° Southwest 313 360 11,900 -690 Descending Atlanta Center
Tue 07:59:48 AM 34.0333 -83.9000 221° Southwest 301 346 11,000 -1,724 Descending Atlanta TRACON
Tue 08:00:48 AM 33.9667 -83.9667 220° Southwest 294 338 9,400 -1,053 Descending Atlanta TRACON
Tue 08:01:42 AM 33.9000 -83.9667 180° South 295 339 9,000 -258 Descending Atlanta TRACON
Tue 08:02:21 AM 33.8486 -83.9739 187° South 284 327 9,000  Level Atlanta Center
Tue 08:03:21 AM 33.7672 -83.9689 177° South 289 333 9,000 -900 Level Atlanta Center
Tue 08:04:21 AM 33.6878 -83.9664 179° South 289 333 7,200 -1,000 Descending Atlanta Center
Tue 08:05:21 AM 33.6314 -84.0064 211° Southwest 237 273 7,000 -557 Descending Atlanta Center
Tue 08:07:24 AM 33.6333 -84.1333 271° West 188 216 5,500 -754 Descending Atlanta TRACON
Tue 08:08:24 AM 33.6333 -84.2000 270° West 187 215 4,700 -895 Descending Atlanta TRACON
Tue 08:09:18 AM 33.6333 -84.2500 270° West 178 205 3,800 -1,000 Descending Atlanta TRACON
Tue 08:10:18 AM 33.6333 -84.3167 270° West 170 196 2,800 -895 Descending Atlanta TRACON
Tue 08:11:12 AM 33.6333 -84.3500 270° West 140 161 2,100 -737 Descending Atlanta TRACON
Tue 08:12:12 AM 33.6333 -84.4000 270° West 131 151 1,400 -700 Descending Atlanta TRACON

Login

Don't have an account? Register now (free) for customized features, flight alerts, and more!